PWSweather.com
Personal Weather Stations
Station Observations
AF1HS
North Haven, CT 06473

North Haven, CT 06473

Lat: 41.3733, Lon: -72.8413

Elevation: 85.3

Station Type: Oregon Scientific WMR968

http://www.af1hs.com/wx/index.php

High Low Average
Temperature 50.7°F10.4°C 41.4°F5.2°C 46.2°F7.9°C
Dew Point 35.8°F2.1°C 28.5°F-1.9°C 32.1°F0.1°C
Winds Calm Calm Calm Calm Calm ENECalm ENE
Wind Gusts -- -- --
Humidity 66% 45% 58%
Pressure 30.43 in1030.5 mb 30.15 in1021.0 mb -
Precipitation 0.00 in0.0 mm - -
Hour Temp Dew Point Humidity Winds Wind Gusts Pressure Precip Precip Rate Daily Precip Total
12:00 AM 45.9°F7.7°C 31.5°F-0.3°C 57% Calm Calm -- 30.40 in1029.5 mb - 0.00 in0.0 mm 0.00 in0.0 mm
12:10 AM 45.5°F7.5°C 31.6°F-0.2°C 58% Calm Calm -- 30.37 in1028.4 mb - 0.00 in0.0 mm 0.00 in0.0 mm
12:20 AM 45.5°F7.5°C 31.6°F-0.2°C 58% Calm Calm -- 30.37 in1028.4 mb - 0.00 in0.0 mm 0.00 in0.0 mm
12:30 AM 45.4°F7.4°C 31.5°F-0.3°C 58% Calm Calm -- 30.37 in1028.4 mb - 0.00 in0.0 mm 0.00 in0.0 mm
12:40 AM 45.1°F7.3°C 31.2°F-0.4°C 58% Calm Calm -- 30.37 in1028.4 mb - 0.00 in0.0 mm 0.00 in0.0 mm
12:50 AM 44.9°F7.2°C 31.0°F-0.6°C 58% Calm Calm -- 30.39 in1029.1 mb - 0.00 in0.0 mm 0.00 in0.0 mm
01:00 AM 44.6°F7.0°C 31.1°F-0.5°C 59% Calm Calm -- 30.40 in1029.5 mb - 0.00 in0.0 mm 0.00 in0.0 mm
01:10 AM 44.8°F7.1°C 31.3°F-0.4°C 59% Calm Calm -- 30.40 in1029.5 mb - 0.00 in0.0 mm 0.00 in0.0 mm
01:20 AM 44.6°F7.0°C 31.1°F-0.5°C 59% Calm Calm -- 30.38 in1028.8 mb - 0.00 in0.0 mm 0.00 in0.0 mm
01:30 AM 44.4°F6.9°C 31.0°F-0.6°C 59% Calm Calm -- 30.37 in1028.4 mb - 0.00 in0.0 mm 0.00 in0.0 mm
01:40 AM 44.1°F6.7°C 30.6°F-0.8°C 59% Calm Calm -- 30.40 in1029.5 mb - 0.00 in0.0 mm 0.00 in0.0 mm
01:50 AM 43.5°F6.4°C 30.1°F-1.1°C 59% Calm Calm -- 30.40 in1029.5 mb - 0.00 in0.0 mm 0.00 in0.0 mm
02:00 AM 43.0°F6.1°C 29.7°F-1.3°C 59% Calm Calm -- 30.40 in1029.5 mb - 0.00 in0.0 mm 0.00 in0.0 mm
02:10 AM 42.6°F5.9°C 29.2°F-1.6°C 59% Calm Calm -- 30.40 in1029.5 mb - 0.00 in0.0 mm 0.00 in0.0 mm
02:20 AM 42.4°F5.8°C 29.5°F-1.4°C 60% Calm Calm -- 30.40 in1029.5 mb - 0.00 in0.0 mm 0.00 in0.0 mm
02:30 AM 42.0°F5.6°C 29.1°F-1.6°C 60% Calm Calm -- 30.40 in1029.5 mb - 0.00 in0.0 mm 0.00 in0.0 mm
02:40 AM 41.9°F5.5°C 29.0°F-1.7°C 60% Calm Calm -- 30.40 in1029.5 mb - 0.00 in0.0 mm 0.00 in0.0 mm
02:50 AM 41.4°F5.2°C 28.5°F-1.9°C 60% Calm Calm -- 30.39 in1029.1 mb - 0.00 in0.0 mm 0.00 in0.0 mm
03:00 AM 41.4°F5.2°C 28.5°F-1.9°C 60% Calm Calm -- 30.37 in1028.4 mb - 0.00 in0.0 mm 0.00 in0.0 mm
03:10 AM 41.4°F5.2°C 28.9°F-1.7°C 61% Calm Calm -- 30.40 in1029.5 mb - 0.00 in0.0 mm 0.00 in0.0 mm
03:20 AM 41.5°F5.3°C 29.1°F-1.6°C 61% Calm Calm -- 30.40 in1029.5 mb - 0.00 in0.0 mm 0.00 in0.0 mm
03:30 AM 41.5°F5.3°C 29.1°F-1.6°C 61% Calm Calm -- 30.40 in1029.5 mb - 0.00 in0.0 mm 0.00 in0.0 mm
03:40 AM 41.5°F5.3°C 29.1°F-1.6°C 61% Calm Calm -- 30.37 in1028.4 mb - 0.00 in0.0 mm 0.00 in0.0 mm
03:50 AM 41.8°F5.4°C 29.7°F-1.3°C 62% Calm Calm -- 30.39 in1029.1 mb - 0.00 in0.0 mm 0.00 in0.0 mm
04:00 AM 41.7°F5.4°C 29.6°F-1.3°C 62% Calm Calm -- 30.40 in1029.5 mb - 0.00 in0.0 mm 0.00 in0.0 mm
04:10 AM 41.9°F5.5°C 29.8°F-1.2°C 62% Calm Calm -- 30.37 in1028.4 mb - 0.00 in0.0 mm 0.00 in0.0 mm
04:20 AM 42.1°F5.6°C 30.0°F-1.1°C 62% Calm Calm -- 30.37 in1028.4 mb - 0.00 in0.0 mm 0.00 in0.0 mm
04:30 AM 41.9°F5.5°C 29.8°F-1.2°C 62% Calm Calm -- 30.40 in1029.5 mb - 0.00 in0.0 mm 0.00 in0.0 mm
04:40 AM 42.1°F5.6°C 30.4°F-0.9°C 63% Calm Calm -- 30.40 in1029.5 mb - 0.00 in0.0 mm 0.00 in0.0 mm
04:50 AM 42.3°F5.7°C 30.6°F-0.8°C 63% Calm Calm -- 30.40 in1029.5 mb - 0.00 in0.0 mm 0.00 in0.0 mm
05:00 AM 42.3°F5.7°C 30.6°F-0.8°C 63% Calm Calm -- 30.40 in1029.5 mb - 0.00 in0.0 mm 0.00 in0.0 mm
05:10 AM 42.5°F5.8°C 30.8°F-0.7°C 63% Calm Calm -- 30.40 in1029.5 mb - 0.00 in0.0 mm 0.00 in0.0 mm
05:20 AM 42.5°F5.8°C 31.2°F-0.4°C 64% Calm Calm -- 30.40 in1029.5 mb - 0.00 in0.0 mm 0.00 in0.0 mm
05:30 AM 42.8°F6.0°C 31.5°F-0.3°C 64% Calm Calm -- 30.40 in1029.5 mb - 0.00 in0.0 mm 0.00 in0.0 mm
05:40 AM 43.0°F6.1°C 31.6°F-0.2°C 64% Calm Calm -- 30.43 in1030.5 mb - 0.00 in0.0 mm 0.00 in0.0 mm
05:50 AM 43.2°F6.2°C 31.8°F-0.1°C 64% Calm Calm -- 30.42 in1030.1 mb - 0.00 in0.0 mm 0.00 in0.0 mm
06:00 AM 43.3°F6.3°C 32.0°F0.0°C 64% Calm Calm -- 30.40 in1029.5 mb - 0.00 in0.0 mm 0.00 in0.0 mm
06:10 AM 43.5°F6.4°C 32.1°F0.1°C 64% Calm Calm -- 30.43 in1030.5 mb - 0.00 in0.0 mm 0.00 in0.0 mm
06:20 AM 43.8°F6.6°C 32.8°F0.4°C 65% Calm Calm -- 30.43 in1030.5 mb - 0.00 in0.0 mm 0.00 in0.0 mm
06:30 AM 44.0°F6.7°C 33.0°F0.6°C 65% Calm Calm -- 30.43 in1030.5 mb - 0.00 in0.0 mm 0.00 in0.0 mm
06:40 AM 44.2°F6.8°C 33.2°F0.7°C 65% Calm Calm -- 30.43 in1030.5 mb - 0.00 in0.0 mm 0.00 in0.0 mm
06:50 AM 44.4°F6.9°C 33.4°F0.8°C 65% Calm Calm -- 30.42 in1030.1 mb - 0.00 in0.0 mm 0.00 in0.0 mm
07:00 AM 44.7°F7.1°C 33.7°F0.9°C 65% Calm Calm -- 30.40 in1029.5 mb - 0.00 in0.0 mm 0.00 in0.0 mm
07:10 AM 45.0°F7.2°C 33.9°F1.1°C 65% Calm Calm -- 30.43 in1030.5 mb - 0.00 in0.0 mm 0.00 in0.0 mm
07:20 AM 45.3°F7.4°C 34.2°F1.2°C 65% Calm Calm -- 30.43 in1030.5 mb - 0.00 in0.0 mm 0.00 in0.0 mm
07:30 AM 45.5°F7.5°C 34.4°F1.3°C 65% Calm Calm -- 30.43 in1030.5 mb - 0.00 in0.0 mm 0.00 in0.0 mm
07:40 AM 45.7°F7.6°C 34.6°F1.4°C 65% Calm Calm -- 30.43 in1030.5 mb - 0.00 in0.0 mm 0.00 in0.0 mm
07:50 AM 45.9°F7.7°C 34.8°F1.6°C 65% Calm Calm -- 30.43 in1030.5 mb - 0.00 in0.0 mm 0.00 in0.0 mm
08:00 AM 46.1°F7.8°C 35.0°F1.7°C 65% Calm Calm -- 30.43 in1030.5 mb - 0.00 in0.0 mm 0.00 in0.0 mm
08:10 AM 46.4°F8.0°C 35.3°F1.8°C 65% Calm Calm -- 30.43 in1030.5 mb - 0.00 in0.0 mm 0.00 in0.0 mm
08:20 AM 46.6°F8.1°C 35.4°F1.9°C 65% Calm Calm -- 30.43 in1030.5 mb - 0.00 in0.0 mm 0.00 in0.0 mm
08:30 AM 46.8°F8.2°C 35.6°F2.0°C 65% Calm Calm -- 30.43 in1030.5 mb - 0.00 in0.0 mm 0.00 in0.0 mm
08:40 AM 46.9°F8.3°C 35.7°F2.1°C 65% Calm Calm -- 30.43 in1030.5 mb - 0.00 in0.0 mm 0.00 in0.0 mm
08:50 AM 46.9°F8.3°C 35.8°F2.1°C 65% Calm Calm -- 30.43 in1030.5 mb - 0.00 in0.0 mm 0.00 in0.0 mm
09:00 AM 47.3°F8.5°C 35.7°F2.1°C 64% Calm Calm -- 30.43 in1030.5 mb - 0.00 in0.0 mm 0.00 in0.0 mm
09:10 AM 47.3°F8.5°C 34.5°F1.4°C 61% Calm Calm -- 30.43 in1030.5 mb - 0.00 in0.0 mm 0.00 in0.0 mm
09:20 AM 48.0°F8.9°C 34.4°F1.3°C 59% Calm Calm -- 30.41 in1029.8 mb - 0.00 in0.0 mm 0.00 in0.0 mm
09:30 AM 48.0°F8.9°C 33.9°F1.1°C 58% Calm Calm -- 30.40 in1029.5 mb - 0.00 in0.0 mm 0.00 in0.0 mm
09:40 AM 48.1°F8.9°C 32.7°F0.4°C 55% Calm Calm -- 30.40 in1029.5 mb - 0.00 in0.0 mm 0.00 in0.0 mm
09:50 AM 48.4°F9.1°C 32.9°F0.5°C 55% Calm Calm -- 30.40 in1029.5 mb - 0.00 in0.0 mm 0.00 in0.0 mm
10:00 AM 48.4°F9.1°C 33.0°F0.6°C 55% Calm Calm -- 30.43 in1030.5 mb - 0.00 in0.0 mm 0.00 in0.0 mm
10:10 AM 48.4°F9.1°C 32.9°F0.5°C 55% Calm Calm -- 30.40 in1029.5 mb - 0.00 in0.0 mm 0.00 in0.0 mm
10:20 AM 48.7°F9.3°C 32.8°F0.4°C 54% Calm Calm -- 30.40 in1029.5 mb - 0.00 in0.0 mm 0.00 in0.0 mm
10:30 AM 49.1°F9.5°C 33.2°F0.7°C 54% Calm Calm -- 30.40 in1029.5 mb - 0.00 in0.0 mm 0.00 in0.0 mm
10:40 AM 49.1°F9.5°C 32.2°F0.1°C 52% Calm Calm -- 30.40 in1029.5 mb - 0.00 in0.0 mm 0.00 in0.0 mm
10:50 AM 49.5°F9.7°C 33.5°F0.8°C 54% Calm Calm -- 30.40 in1029.5 mb - 0.00 in0.0 mm 0.00 in0.0 mm
11:00 AM 49.6°F9.8°C 32.2°F0.1°C 51% Calm Calm -- 30.40 in1029.5 mb - 0.00 in0.0 mm 0.00 in0.0 mm
11:10 AM 49.9°F9.9°C 31.5°F-0.3°C 49% Calm Calm -- 30.40 in1029.5 mb - 0.00 in0.0 mm 0.00 in0.0 mm
11:20 AM 50.0°F10.0°C 31.6°F-0.2°C 49% Calm Calm -- 30.40 in1029.5 mb - 0.00 in0.0 mm 0.00 in0.0 mm
11:30 AM 49.9°F9.9°C 31.0°F-0.6°C 48% Calm Calm -- 30.40 in1029.5 mb - 0.00 in0.0 mm 0.00 in0.0 mm
11:40 AM 50.1°F10.1°C 30.6°F-0.8°C 47% Calm Calm -- 30.40 in1029.5 mb - 0.00 in0.0 mm 0.00 in0.0 mm
11:50 AM 50.7°F10.4°C 31.2°F-0.4°C 47% Calm Calm -- 30.40 in1029.5 mb - 0.00 in0.0 mm 0.00 in0.0 mm
12:00 PM 50.4°F10.2°C 30.3°F-0.9°C 46% Calm Calm -- 30.40 in1029.5 mb - 0.00 in0.0 mm 0.00 in0.0 mm
12:10 PM 50.2°F10.1°C 30.2°F-1.0°C 46% Calm Calm -- 30.40 in1029.5 mb - 0.00 in0.0 mm 0.00 in0.0 mm
12:20 PM 50.7°F10.4°C 30.6°F-0.8°C 46% Calm Calm -- 30.39 in1029.1 mb - 0.00 in0.0 mm 0.00 in0.0 mm
12:30 PM 50.5°F10.3°C 30.5°F-0.8°C 46% Calm Calm -- 30.37 in1028.4 mb - 0.00 in0.0 mm 0.00 in0.0 mm
12:40 PM 50.0°F10.0°C 30.0°F-1.1°C 46% Calm Calm -- 30.37 in1028.4 mb - 0.00 in0.0 mm 0.00 in0.0 mm
12:50 PM 50.0°F10.0°C 30.5°F-0.8°C 47% Calm Calm -- 30.37 in1028.4 mb - 0.00 in0.0 mm 0.00 in0.0 mm
01:00 PM 50.0°F10.0°C 30.6°F-0.8°C 47% Calm Calm -- 30.37 in1028.4 mb - 0.00 in0.0 mm 0.00 in0.0 mm
01:10 PM 50.2°F10.1°C 30.2°F-1.0°C 46% Calm Calm -- 30.37 in1028.4 mb - 0.00 in0.0 mm 0.00 in0.0 mm
01:20 PM 50.2°F10.1°C 30.2°F-1.0°C 46% Calm Calm -- 30.37 in1028.4 mb - 0.00 in0.0 mm 0.00 in0.0 mm
01:30 PM 50.0°F10.0°C 30.0°F-1.1°C 46% Calm Calm -- 30.37 in1028.4 mb - 0.00 in0.0 mm 0.00 in0.0 mm
01:40 PM 50.2°F10.1°C 30.2°F-1.0°C 46% Calm Calm -- 30.37 in1028.4 mb - 0.00 in0.0 mm 0.00 in0.0 mm
01:50 PM 50.2°F10.1°C 29.6°F-1.3°C 45% Calm Calm -- 30.37 in1028.4 mb - 0.00 in0.0 mm 0.00 in0.0 mm
02:00 PM 50.2°F10.1°C 30.2°F-1.0°C 46% Calm Calm -- 30.37 in1028.4 mb - 0.00 in0.0 mm 0.00 in0.0 mm
02:10 PM 50.1°F10.1°C 30.6°F-0.8°C 47% Calm Calm -- 30.34 in1027.4 mb - 0.00 in0.0 mm 0.00 in0.0 mm
02:20 PM 50.0°F10.0°C 30.0°F-1.1°C 46% Calm Calm -- 30.34 in1027.4 mb - 0.00 in0.0 mm 0.00 in0.0 mm
02:30 PM 49.9°F9.9°C 30.4°F-0.9°C 47% Calm Calm -- 30.34 in1027.4 mb - 0.00 in0.0 mm 0.00 in0.0 mm
02:40 PM 49.6°F9.8°C 30.7°F-0.7°C 48% Calm Calm -- 30.34 in1027.4 mb - 0.00 in0.0 mm 0.00 in0.0 mm
02:50 PM 49.6°F9.8°C 31.2°F-0.4°C 49% Calm Calm -- 30.34 in1027.4 mb - 0.00 in0.0 mm 0.00 in0.0 mm
03:00 PM 49.8°F9.9°C 32.4°F0.2°C 51% Calm Calm -- 30.34 in1027.4 mb - 0.00 in0.0 mm 0.00 in0.0 mm
03:10 PM 49.6°F9.8°C 32.2°F0.1°C 51% Calm Calm -- 30.31 in1026.4 mb - 0.00 in0.0 mm 0.00 in0.0 mm
03:20 PM 49.6°F9.8°C 32.2°F0.1°C 51% Calm Calm -- 30.31 in1026.4 mb - 0.00 in0.0 mm 0.00 in0.0 mm
03:30 PM 49.5°F9.7°C 32.1°F0.1°C 51% Calm Calm -- 30.31 in1026.4 mb - 0.00 in0.0 mm 0.00 in0.0 mm
03:40 PM 49.5°F9.7°C 32.1°F0.1°C 51% Calm Calm -- 30.28 in1025.4 mb - 0.00 in0.0 mm 0.00 in0.0 mm
03:50 PM 49.5°F9.7°C 32.1°F0.1°C 51% Calm Calm -- 30.30 in1026.1 mb - 0.00 in0.0 mm 0.00 in0.0 mm
04:00 PM 49.3°F9.6°C 31.9°F-0.1°C 51% Calm Calm -- 30.31 in1026.4 mb - 0.00 in0.0 mm 0.00 in0.0 mm
04:10 PM 49.1°F9.5°C 32.2°F0.1°C 52% Calm Calm -- 30.31 in1026.4 mb - 0.00 in0.0 mm 0.00 in0.0 mm
04:20 PM 49.1°F9.5°C 33.2°F0.7°C 54% Calm Calm -- 30.31 in1026.4 mb - 0.00 in0.0 mm 0.00 in0.0 mm
04:30 PM 48.9°F9.4°C 33.0°F0.6°C 54% Calm Calm -- 30.31 in1026.4 mb - 0.00 in0.0 mm 0.00 in0.0 mm
04:40 PM 48.9°F9.4°C 33.0°F0.6°C 54% Calm Calm -- 30.31 in1026.4 mb - 0.00 in0.0 mm 0.00 in0.0 mm
04:50 PM 48.6°F9.2°C 32.7°F0.4°C 54% Calm Calm -- 30.30 in1026.1 mb - 0.00 in0.0 mm 0.00 in0.0 mm
05:00 PM 48.4°F9.1°C 32.9°F0.5°C 55% Calm Calm -- 30.28 in1025.4 mb - 0.00 in0.0 mm 0.00 in0.0 mm
05:10 PM 48.2°F9.0°C 32.8°F0.4°C 55% Calm Calm -- 30.28 in1025.4 mb - 0.00 in0.0 mm 0.00 in0.0 mm
05:20 PM 48.0°F8.9°C 32.6°F0.3°C 55% Calm Calm -- 30.28 in1025.4 mb - 0.00 in0.0 mm 0.00 in0.0 mm
05:30 PM 47.7°F8.7°C 32.7°F0.4°C 56% Calm Calm -- 30.28 in1025.4 mb - 0.00 in0.0 mm 0.00 in0.0 mm
05:40 PM 47.5°F8.6°C 32.6°F0.3°C 56% Calm Calm -- 30.28 in1025.4 mb - 0.00 in0.0 mm 0.00 in0.0 mm
05:50 PM 47.1°F8.4°C 32.2°F0.1°C 56% Calm Calm -- 30.28 in1025.4 mb - 0.00 in0.0 mm 0.00 in0.0 mm
06:00 PM 46.9°F8.3°C 32.5°F0.3°C 57% Calm Calm -- 30.28 in1025.4 mb - 0.00 in0.0 mm 0.00 in0.0 mm
06:10 PM 46.8°F8.2°C 32.3°F0.2°C 57% Calm Calm -- 30.28 in1025.4 mb - 0.00 in0.0 mm 0.00 in0.0 mm
06:20 PM 46.8°F8.2°C 32.3°F0.2°C 57% Calm Calm -- 30.28 in1025.4 mb - 0.00 in0.0 mm 0.00 in0.0 mm
06:30 PM 46.4°F8.0°C 32.4°F0.2°C 58% Calm Calm -- 30.28 in1025.4 mb - 0.00 in0.0 mm 0.00 in0.0 mm
06:40 PM 46.1°F7.8°C 32.2°F0.1°C 58% Calm Calm -- 30.28 in1025.4 mb - 0.00 in0.0 mm 0.00 in0.0 mm
06:50 PM 45.9°F7.7°C 32.4°F0.2°C 59% Calm Calm -- 30.28 in1025.4 mb - 0.00 in0.0 mm 0.00 in0.0 mm
07:00 PM 45.7°F7.6°C 32.2°F0.1°C 59% Calm Calm -- 30.28 in1025.4 mb - 0.00 in0.0 mm 0.00 in0.0 mm
07:10 PM 45.5°F7.5°C 32.4°F0.2°C 60% Calm Calm -- 30.28 in1025.4 mb - 0.00 in0.0 mm 0.00 in0.0 mm
07:20 PM 45.3°F7.4°C 32.2°F0.1°C 60% Calm Calm -- 30.27 in1025.1 mb - 0.00 in0.0 mm 0.00 in0.0 mm
07:30 PM 45.3°F7.4°C 32.2°F0.1°C 60% Calm Calm -- 30.25 in1024.4 mb - 0.00 in0.0 mm 0.00 in0.0 mm
07:40 PM 45.1°F7.3°C 32.5°F0.3°C 61% Calm Calm -- 30.25 in1024.4 mb - 0.00 in0.0 mm 0.00 in0.0 mm
07:50 PM 44.8°F7.1°C 32.2°F0.1°C 61% Calm Calm -- 30.25 in1024.4 mb - 0.00 in0.0 mm 0.00 in0.0 mm
08:00 PM 44.8°F7.1°C 32.5°F0.3°C 62% Calm Calm -- 30.25 in1024.4 mb - 0.00 in0.0 mm 0.00 in0.0 mm
08:10 PM 44.7°F7.1°C 32.8°F0.4°C 63% Calm Calm -- 30.25 in1024.4 mb - 0.00 in0.0 mm 0.00 in0.0 mm
08:20 PM 44.6°F7.0°C 32.8°F0.4°C 63% Calm Calm -- 30.25 in1024.4 mb - 0.00 in0.0 mm 0.00 in0.0 mm
08:30 PM 44.4°F6.9°C 33.0°F0.6°C 64% Calm Calm -- 30.25 in1024.4 mb - 0.00 in0.0 mm 0.00 in0.0 mm
08:40 PM 44.2°F6.8°C 32.8°F0.4°C 64% Calm Calm -- 30.22 in1023.4 mb - 0.00 in0.0 mm 0.00 in0.0 mm
08:50 PM 44.4°F6.9°C 33.4°F0.8°C 65% Calm Calm -- 30.22 in1023.4 mb - 0.00 in0.0 mm 0.00 in0.0 mm
09:00 PM 44.4°F6.9°C 33.4°F0.8°C 65% Calm Calm -- 30.22 in1023.4 mb - 0.00 in0.0 mm 0.00 in0.0 mm
09:10 PM 44.4°F6.9°C 33.4°F0.8°C 65% Calm Calm -- 30.22 in1023.4 mb - 0.00 in0.0 mm 0.00 in0.0 mm
09:20 PM 44.4°F6.9°C 33.4°F0.8°C 65% Calm Calm -- 30.21 in1023.0 mb - 0.00 in0.0 mm 0.00 in0.0 mm
09:30 PM 44.6°F7.0°C 33.6°F0.9°C 65% Calm Calm -- 30.19 in1022.4 mb - 0.00 in0.0 mm 0.00 in0.0 mm
09:40 PM 44.6°F7.0°C 33.6°F0.9°C 65% Calm Calm -- 30.19 in1022.4 mb - 0.00 in0.0 mm 0.00 in0.0 mm
09:50 PM 44.6°F7.0°C 33.6°F0.9°C 65% Calm Calm -- 30.19 in1022.4 mb - 0.00 in0.0 mm 0.00 in0.0 mm
10:00 PM 44.6°F7.0°C 33.6°F0.9°C 65% Calm Calm -- 30.19 in1022.4 mb - 0.00 in0.0 mm 0.00 in0.0 mm
10:10 PM 44.6°F7.0°C 33.9°F1.1°C 66% Calm Calm -- 30.19 in1022.4 mb - 0.00 in0.0 mm 0.00 in0.0 mm
10:20 PM 44.6°F7.0°C 33.9°F1.1°C 66% Calm Calm -- 30.19 in1022.4 mb - 0.00 in0.0 mm 0.00 in0.0 mm
10:30 PM 44.8°F7.1°C 34.1°F1.2°C 66% Calm Calm -- 30.19 in1022.4 mb - 0.00 in0.0 mm 0.00 in0.0 mm
10:40 PM 44.8°F7.1°C 34.1°F1.2°C 66% Calm Calm -- 30.16 in1021.3 mb - 0.00 in0.0 mm 0.00 in0.0 mm
10:50 PM 45.0°F7.2°C 33.9°F1.1°C 65% Calm Calm -- 30.16 in1021.3 mb - 0.00 in0.0 mm 0.00 in0.0 mm
11:00 PM 45.1°F7.3°C 34.0°F1.1°C 65% Calm Calm -- 30.16 in1021.3 mb - 0.00 in0.0 mm 0.00 in0.0 mm
11:10 PM 45.1°F7.3°C 34.1°F1.2°C 65% Calm Calm -- 30.16 in1021.3 mb - 0.00 in0.0 mm 0.00 in0.0 mm
11:20 PM 45.1°F7.3°C 34.1°F1.2°C 65% Calm Calm -- 30.16 in1021.3 mb - 0.00 in0.0 mm 0.00 in0.0 mm
11:30 PM 45.1°F7.3°C 34.1°F1.2°C 65% Calm Calm -- 30.16 in1021.3 mb - 0.00 in0.0 mm 0.00 in0.0 mm
11:40 PM 45.1°F7.3°C 34.1°F1.2°C 65% Calm Calm -- 30.16 in1021.3 mb - 0.00 in0.0 mm 0.00 in0.0 mm
11:50 PM 45.3°F7.4°C 34.6°F1.4°C 66% Calm Calm -- 30.15 in1021.0 mb - 0.00 in0.0 mm 0.00 in0.0 mm